sensor_id;sensor_type;location;lat;lon;timestamp;pressure;altitude;pressure_sealevel;temperature
68952;BMP180;56000;51.146;17.112;2023-10-13T00:00:38;100164.60;;;14.70
68952;BMP180;56000;51.146;17.112;2023-10-13T00:03:32;100165.80;;;14.68
68952;BMP180;56000;51.146;17.112;2023-10-13T00:06:06;100161.80;;;14.60
68952;BMP180;56000;51.146;17.112;2023-10-13T00:08:40;100157.60;;;14.60
68952;BMP180;56000;51.146;17.112;2023-10-13T00:11:16;100159.00;;;14.60
68952;BMP180;56000;51.146;17.112;2023-10-13T00:13:49;100159.60;;;14.60
68952;BMP180;56000;51.146;17.112;2023-10-13T00:16:23;100156.60;;;14.60
68952;BMP180;56000;51.146;17.112;2023-10-13T00:18:58;100159.40;;;14.60
68952;BMP180;56000;51.146;17.112;2023-10-13T00:21:31;100162.60;;;14.60
68952;BMP180;56000;51.146;17.112;2023-10-13T00:24:05;100163.60;;;14.60
68952;BMP180;56000;51.146;17.112;2023-10-13T00:26:44;100163.20;;;14.60
68952;BMP180;56000;51.146;17.112;2023-10-13T00:29:17;100162.00;;;14.60
68952;BMP180;56000;51.146;17.112;2023-10-13T00:31:50;100161.20;;;14.60
68952;BMP180;56000;51.146;17.112;2023-10-13T00:34:24;100167.80;;;14.60
68952;BMP180;56000;51.146;17.112;2023-10-13T00:37:00;100163.80;;;14.60
68952;BMP180;56000;51.146;17.112;2023-10-13T00:39:49;100165.40;;;14.58
68952;BMP180;56000;51.146;17.112;2023-10-13T00:42:28;100164.40;;;14.52
68952;BMP180;56000;51.146;17.112;2023-10-13T00:45:23;100168.60;;;14.50
68952;BMP180;56000;51.146;17.112;2023-10-13T00:48:00;100163.60;;;14.50
68952;BMP180;56000;51.146;17.112;2023-10-13T00:50:33;100160.20;;;14.50
68952;BMP180;56000;51.146;17.112;2023-10-13T00:53:08;100162.00;;;14.50
68952;BMP180;56000;51.146;17.112;2023-10-13T00:55:41;100168.40;;;14.50
68952;BMP180;56000;51.146;17.112;2023-10-13T00:58:16;100167.40;;;14.50
68952;BMP180;56000;51.146;17.112;2023-10-13T01:00:53;100164.80;;;14.46
68952;BMP180;56000;51.146;17.112;2023-10-13T01:03:51;100164.80;;;14.40
68952;BMP180;56000;51.146;17.112;2023-10-13T01:06:28;100165.00;;;14.40
68952;BMP180;56000;51.146;17.112;2023-10-13T01:09:04;100168.60;;;14.40
68952;BMP180;56000;51.146;17.112;2023-10-13T01:11:45;100169.80;;;14.40
68952;BMP180;56000;51.146;17.112;2023-10-13T01:14:20;100169.80;;;14.38
68952;BMP180;56000;51.146;17.112;2023-10-13T01:16:55;100166.00;;;14.30
68952;BMP180;56000;51.146;17.112;2023-10-13T01:19:35;100178.60;;;14.30
68952;BMP180;56000;51.146;17.112;2023-10-13T01:22:10;100169.00;;;14.30
68952;BMP180;56000;51.146;17.112;2023-10-13T01:24:43;100174.00;;;14.30
68952;BMP180;56000;51.146;17.112;2023-10-13T01:27:17;100178.40;;;14.28
68952;BMP180;56000;51.146;17.112;2023-10-13T01:29:52;100179.20;;;14.20
68952;BMP180;56000;51.146;17.112;2023-10-13T01:32:30;100180.60;;;14.20
68952;BMP180;56000;51.146;17.112;2023-10-13T01:35:04;100180.20;;;14.20
68952;BMP180;56000;51.146;17.112;2023-10-13T01:37:37;100175.00;;;14.20
68952;BMP180;56000;51.146;17.112;2023-10-13T01:40:12;100171.60;;;14.28
68952;BMP180;56000;51.146;17.112;2023-10-13T01:42:50;100168.20;;;14.30
68952;BMP180;56000;51.146;17.112;2023-10-13T01:45:27;100165.20;;;14.30
68952;BMP180;56000;51.146;17.112;2023-10-13T01:48:01;100171.60;;;14.30
68952;BMP180;56000;51.146;17.112;2023-10-13T01:50:37;100180.00;;;14.30
68952;BMP180;56000;51.146;17.112;2023-10-13T01:53:10;100179.80;;;14.30
68952;BMP180;56000;51.146;17.112;2023-10-13T01:55:44;100187.40;;;14.30
68952;BMP180;56000;51.146;17.112;2023-10-13T01:58:17;100183.40;;;14.36
68952;BMP180;56000;51.146;17.112;2023-10-13T02:00:55;100180.00;;;14.38
68952;BMP180;56000;51.146;17.112;2023-10-13T02:03:28;100181.40;;;14.40
68952;BMP180;56000;51.146;17.112;2023-10-13T02:06:02;100178.20;;;14.40
68952;BMP180;56000;51.146;17.112;2023-10-13T02:08:36;100178.60;;;14.40
68952;BMP180;56000;51.146;17.112;2023-10-13T02:11:14;100171.60;;;14.40
68952;BMP180;56000;51.146;17.112;2023-10-13T02:13:50;100171.00;;;14.44
68952;BMP180;56000;51.146;17.112;2023-10-13T02:16:25;100169.80;;;14.44
68952;BMP180;56000;51.146;17.112;2023-10-13T02:18:59;100170.40;;;14.40
68952;BMP180;56000;51.146;17.112;2023-10-13T02:21:37;100166.40;;;14.40
68952;BMP180;56000;51.146;17.112;2023-10-13T02:24:15;100168.60;;;14.34
68952;BMP180;56000;51.146;17.112;2023-10-13T02:26:50;100169.80;;;14.30
68952;BMP180;56000;51.146;17.112;2023-10-13T02:29:23;100166.40;;;14.30
68952;BMP180;56000;51.146;17.112;2023-10-13T02:31:58;100166.60;;;14.30
68952;BMP180;56000;51.146;17.112;2023-10-13T02:34:36;100161.60;;;14.30
68952;BMP180;56000;51.146;17.112;2023-10-13T02:37:09;100163.00;;;14.30
68952;BMP180;56000;51.146;17.112;2023-10-13T02:39:42;100159.40;;;14.30
68952;BMP180;56000;51.146;17.112;2023-10-13T02:42:15;100165.20;;;14.30
68952;BMP180;56000;51.146;17.112;2023-10-13T02:44:55;100164.00;;;14.40
68952;BMP180;56000;51.146;17.112;2023-10-13T02:47:29;100158.00;;;14.36
68952;BMP180;56000;51.146;17.112;2023-10-13T02:50:03;100165.80;;;14.30
68952;BMP180;56000;51.146;17.112;2023-10-13T02:52:42;100166.80;;;14.30
68952;BMP180;56000;51.146;17.112;2023-10-13T02:55:19;100174.60;;;14.30
68952;BMP180;56000;51.146;17.112;2023-10-13T02:57:57;100169.20;;;14.20
68952;BMP180;56000;51.146;17.112;2023-10-13T03:00:30;100172.80;;;14.20
68952;BMP180;56000;51.146;17.112;2023-10-13T03:03:04;100169.40;;;14.18
68952;BMP180;56000;51.146;17.112;2023-10-13T03:05:38;100165.20;;;14.10
68952;BMP180;56000;51.146;17.112;2023-10-13T03:08:11;100169.60;;;14.10
68952;BMP180;56000;51.146;17.112;2023-10-13T03:10:49;100178.60;;;14.00
68952;BMP180;56000;51.146;17.112;2023-10-13T03:13:25;100180.40;;;14.00
68952;BMP180;56000;51.146;17.112;2023-10-13T03:15:59;100180.40;;;13.90
68952;BMP180;56000;51.146;17.112;2023-10-13T03:18:32;100182.60;;;13.90
68952;BMP180;56000;51.146;17.112;2023-10-13T03:21:06;100177.80;;;13.90
68952;BMP180;56000;51.146;17.112;2023-10-13T03:23:39;100181.20;;;13.90
68952;BMP180;56000;51.146;17.112;2023-10-13T03:26:17;100182.80;;;13.90
68952;BMP180;56000;51.146;17.112;2023-10-13T03:28:53;100181.20;;;13.90
68952;BMP180;56000;51.146;17.112;2023-10-13T03:31:28;100179.20;;;13.90
68952;BMP180;56000;51.146;17.112;2023-10-13T03:34:01;100179.00;;;13.80
68952;BMP180;56000;51.146;17.112;2023-10-13T03:36:35;100186.60;;;13.80
68952;BMP180;56000;51.146;17.112;2023-10-13T03:39:25;100181.60;;;13.78
68952;BMP180;56000;51.146;17.112;2023-10-13T03:42:01;100178.20;;;13.70
68952;BMP180;56000;51.146;17.112;2023-10-13T03:44:37;100178.20;;;13.70
68952;BMP180;56000;51.146;17.112;2023-10-13T03:47:10;100176.40;;;13.70
68952;BMP180;56000;51.146;17.112;2023-10-13T03:49:50;100175.60;;;13.62
68952;BMP180;56000;51.146;17.112;2023-10-13T03:52:23;100176.80;;;13.60
68952;BMP180;56000;51.146;17.112;2023-10-13T03:54:56;100173.40;;;13.60
68952;BMP180;56000;51.146;17.112;2023-10-13T03:57:30;100175.20;;;13.60
68952;BMP180;56000;51.146;17.112;2023-10-13T04:00:07;100177.40;;;13.60
68952;BMP180;56000;51.146;17.112;2023-10-13T04:02:44;100174.60;;;13.60
68952;BMP180;56000;51.146;17.112;2023-10-13T04:05:19;100178.80;;;13.60
68952;BMP180;56000;51.146;17.112;2023-10-13T04:08:10;100183.40;;;13.50
68952;BMP180;56000;51.146;17.112;2023-10-13T04:11:00;100176.80;;;13.50
68952;BMP180;56000;51.146;17.112;2023-10-13T04:13:51;100178.80;;;13.50
68952;BMP180;56000;51.146;17.112;2023-10-13T04:16:40;100180.00;;;13.50
68952;BMP180;56000;51.146;17.112;2023-10-13T04:19:23;100168.60;;;13.50
68952;BMP180;56000;51.146;17.112;2023-10-13T04:21:58;100167.60;;;13.60
68952;BMP180;56000;51.146;17.112;2023-10-13T04:24:31;100168.20;;;13.60
68952;BMP180;56000;51.146;17.112;2023-10-13T04:27:26;100169.80;;;13.60
68952;BMP180;56000;51.146;17.112;2023-10-13T04:30:25;100165.20;;;13.64
68952;BMP180;56000;51.146;17.112;2023-10-13T04:33:10;100165.40;;;13.70
68952;BMP180;56000;51.146;17.112;2023-10-13T04:36:09;100163.00;;;13.70
68952;BMP180;56000;51.146;17.112;2023-10-13T04:38:49;100157.00;;;13.70
68952;BMP180;56000;51.146;17.112;2023-10-13T04:41:32;100158.20;;;13.70
68952;BMP180;56000;51.146;17.112;2023-10-13T04:44:15;100161.20;;;13.80
68952;BMP180;56000;51.146;17.112;2023-10-13T04:47:10;100161.60;;;13.80
68952;BMP180;56000;51.146;17.112;2023-10-13T04:49:53;100164.80;;;13.80
68952;BMP180;56000;51.146;17.112;2023-10-13T04:52:32;100163.00;;;13.80
68952;BMP180;56000;51.146;17.112;2023-10-13T04:55:24;100163.00;;;13.80
68952;BMP180;56000;51.146;17.112;2023-10-13T04:58:15;100164.80;;;13.80
68952;BMP180;56000;51.146;17.112;2023-10-13T05:01:09;100159.20;;;13.80
68952;BMP180;56000;51.146;17.112;2023-10-13T05:04:27;100154.80;;;13.82
68952;BMP180;56000;51.146;17.112;2023-10-13T05:07:10;100155.40;;;13.88
68952;BMP180;56000;51.146;17.112;2023-10-13T05:16:37;100150.80;;;13.90
68952;BMP180;56000;51.146;17.112;2023-10-13T05:19:29;100153.00;;;13.90
68952;BMP180;56000;51.146;17.112;2023-10-13T05:22:19;100157.40;;;13.90
68952;BMP180;56000;51.146;17.112;2023-10-13T05:25:11;100161.80;;;13.96
68952;BMP180;56000;51.146;17.112;2023-10-13T05:33:34;100162.40;;;14.08
68952;BMP180;56000;51.146;17.112;2023-10-13T05:36:24;100157.40;;;14.10
68952;BMP180;56000;51.146;17.112;2023-10-13T05:39:15;100157.40;;;14.10
68952;BMP180;56000;51.146;17.112;2023-10-13T05:42:06;100156.20;;;14.20
68952;BMP180;56000;51.146;17.112;2023-10-13T05:44:57;100156.60;;;14.20
68952;BMP180;56000;51.146;17.112;2023-10-13T05:47:55;100149.00;;;14.20
68952;BMP180;56000;51.146;17.112;2023-10-13T05:50:44;100149.20;;;14.30
68952;BMP180;56000;51.146;17.112;2023-10-13T05:53:49;100153.00;;;14.30
68952;BMP180;56000;51.146;17.112;2023-10-13T05:56:55;100152.40;;;14.40
68952;BMP180;56000;51.146;17.112;2023-10-13T05:59:46;100159.20;;;14.40
68952;BMP180;56000;51.146;17.112;2023-10-13T06:02:35;100162.40;;;14.50
68952;BMP180;56000;51.146;17.112;2023-10-13T06:05:26;100157.20;;;14.52
68952;BMP180;56000;51.146;17.112;2023-10-13T06:08:16;100164.00;;;14.60
68952;BMP180;56000;51.146;17.112;2023-10-13T06:11:21;100169.60;;;14.70
68952;BMP180;56000;51.146;17.112;2023-10-13T06:14:12;100175.00;;;14.70
68952;BMP180;56000;51.146;17.112;2023-10-13T06:32:26;100171.40;;;15.16
68952;BMP180;56000;51.146;17.112;2023-10-13T06:35:00;100169.80;;;15.20
68952;BMP180;56000;51.146;17.112;2023-10-13T06:37:38;100164.40;;;15.20
68952;BMP180;56000;51.146;17.112;2023-10-13T06:40:16;100170.60;;;15.30
68952;BMP180;56000;51.146;17.112;2023-10-13T06:42:58;100171.40;;;15.30
68952;BMP180;56000;51.146;17.112;2023-10-13T06:45:45;100182.40;;;15.40
68952;BMP180;56000;51.146;17.112;2023-10-13T06:48:25;100182.00;;;15.52
68952;BMP180;56000;51.146;17.112;2023-10-13T06:50:58;100174.80;;;15.68
68952;BMP180;56000;51.146;17.112;2023-10-13T06:53:38;100177.40;;;15.80
68952;BMP180;56000;51.146;17.112;2023-10-13T06:56:18;100179.80;;;15.90
68952;BMP180;56000;51.146;17.112;2023-10-13T06:58:56;100180.00;;;16.02
68952;BMP180;56000;51.146;17.112;2023-10-13T07:01:34;100180.00;;;16.20
68952;BMP180;56000;51.146;17.112;2023-10-13T07:04:12;100173.60;;;16.38
68952;BMP180;56000;51.146;17.112;2023-10-13T07:06:46;100178.40;;;16.50
68952;BMP180;56000;51.146;17.112;2023-10-13T07:09:21;100176.00;;;16.64
68952;BMP180;56000;51.146;17.112;2023-10-13T07:12:08;100170.40;;;16.80
68952;BMP180;56000;51.146;17.112;2023-10-13T07:14:51;100172.80;;;16.92
68952;BMP180;56000;51.146;17.112;2023-10-13T07:17:30;100177.40;;;17.10
68952;BMP180;56000;51.146;17.112;2023-10-13T07:20:11;100179.60;;;17.20
68952;BMP180;56000;51.146;17.112;2023-10-13T07:22:48;100181.60;;;17.38
68952;BMP180;56000;51.146;17.112;2023-10-13T07:25:29;100182.40;;;17.50
68952;BMP180;56000;51.146;17.112;2023-10-13T07:28:05;100191.00;;;17.60
68952;BMP180;56000;51.146;17.112;2023-10-13T07:30:40;100193.00;;;17.70
68952;BMP180;56000;51.146;17.112;2023-10-13T07:33:21;100188.60;;;17.82
68952;BMP180;56000;51.146;17.112;2023-10-13T07:36:05;100183.00;;;17.92
68952;BMP180;56000;51.146;17.112;2023-10-13T07:38:43;100186.00;;;18.10
68952;BMP180;56000;51.146;17.112;2023-10-13T07:41:32;100184.60;;;18.30
68952;BMP180;56000;51.146;17.112;2023-10-13T07:44:06;100188.20;;;18.70
68952;BMP180;56000;51.146;17.112;2023-10-13T07:46:39;100183.00;;;19.12
68952;BMP180;56000;51.146;17.112;2023-10-13T07:49:12;100175.80;;;19.52
68952;BMP180;56000;51.146;17.112;2023-10-13T07:51:47;100175.20;;;19.96
68952;BMP180;56000;51.146;17.112;2023-10-13T07:54:22;100180.00;;;20.38
68952;BMP180;56000;51.146;17.112;2023-10-13T07:56:56;100175.80;;;20.74
68952;BMP180;56000;51.146;17.112;2023-10-13T07:59:28;100172.20;;;21.20
68952;BMP180;56000;51.146;17.112;2023-10-13T08:02:01;100166.20;;;21.56
68952;BMP180;56000;51.146;17.112;2023-10-13T08:04:45;100163.00;;;21.90
68952;BMP180;56000;51.146;17.112;2023-10-13T08:07:19;100164.40;;;22.00
68952;BMP180;56000;51.146;17.112;2023-10-13T08:10:00;100163.80;;;22.00
68952;BMP180;56000;51.146;17.112;2023-10-13T08:12:33;100161.60;;;22.28
68952;BMP180;56000;51.146;17.112;2023-10-13T08:15:10;100162.20;;;22.58
68952;BMP180;56000;51.146;17.112;2023-10-13T08:17:52;100164.60;;;22.80
68952;BMP180;56000;51.146;17.112;2023-10-13T08:20:30;100154.60;;;23.06
68952;BMP180;56000;51.146;17.112;2023-10-13T08:23:09;100151.20;;;23.30
68952;BMP180;56000;51.146;17.112;2023-10-13T08:25:45;100145.20;;;23.62
68952;BMP180;56000;51.146;17.112;2023-10-13T08:28:36;100148.60;;;24.16
68952;BMP180;56000;51.146;17.112;2023-10-13T08:31:29;100155.80;;;24.42
68952;BMP180;56000;51.146;17.112;2023-10-13T08:34:02;100163.80;;;24.70
68952;BMP180;56000;51.146;17.112;2023-10-13T08:36:38;100163.00;;;24.88
68952;BMP180;56000;51.146;17.112;2023-10-13T08:39:12;100160.60;;;25.00
68952;BMP180;56000;51.146;17.112;2023-10-13T08:42:15;100165.60;;;25.50
68952;BMP180;56000;51.146;17.112;2023-10-13T08:44:49;100161.40;;;26.08
68952;BMP180;56000;51.146;17.112;2023-10-13T08:47:24;100170.00;;;26.60
68952;BMP180;56000;51.146;17.112;2023-10-13T08:50:08;100168.40;;;26.92
68952;BMP180;56000;51.146;17.112;2023-10-13T08:53:02;100161.40;;;27.10
68952;BMP180;56000;51.146;17.112;2023-10-13T08:55:41;100158.60;;;27.20
68952;BMP180;56000;51.146;17.112;2023-10-13T08:58:36;100159.20;;;27.24
68952;BMP180;56000;51.146;17.112;2023-10-13T09:01:41;100164.80;;;27.52
68952;BMP180;56000;51.146;17.112;2023-10-13T09:04:20;100161.40;;;27.96
68952;BMP180;56000;51.146;17.112;2023-10-13T09:06:56;100165.00;;;28.22
68952;BMP180;56000;51.146;17.112;2023-10-13T09:09:50;100154.80;;;28.40
68952;BMP180;56000;51.146;17.112;2023-10-13T09:12:43;100160.60;;;28.60
68952;BMP180;56000;51.146;17.112;2023-10-13T09:15:35;100156.00;;;28.70
68952;BMP180;56000;51.146;17.112;2023-10-13T09:18:44;100156.40;;;29.02
68952;BMP180;56000;51.146;17.112;2023-10-13T09:21:20;100159.60;;;29.22
68952;BMP180;56000;51.146;17.112;2023-10-13T09:24:11;100154.40;;;29.48
68952;BMP180;56000;51.146;17.112;2023-10-13T09:27:03;100156.20;;;29.70
68952;BMP180;56000;51.146;17.112;2023-10-13T09:29:36;100152.80;;;29.90
68952;BMP180;56000;51.146;17.112;2023-10-13T09:32:10;100152.80;;;29.74
68952;BMP180;56000;51.146;17.112;2023-10-13T09:34:46;100151.00;;;29.30
68952;BMP180;56000;51.146;17.112;2023-10-13T09:37:22;100150.20;;;29.30
68952;BMP180;56000;51.146;17.112;2023-10-13T09:39:57;100152.00;;;28.80
68952;BMP180;56000;51.146;17.112;2023-10-13T09:42:37;100154.20;;;28.14
68952;BMP180;56000;51.146;17.112;2023-10-13T09:45:12;100149.60;;;27.62
68952;BMP180;56000;51.146;17.112;2023-10-13T09:47:48;100153.40;;;27.00
68952;BMP180;56000;51.146;17.112;2023-10-13T09:50:25;100153.60;;;26.50
68952;BMP180;56000;51.146;17.112;2023-10-13T09:53:05;100149.00;;;26.50
68952;BMP180;56000;51.146;17.112;2023-10-13T09:55:47;100161.20;;;26.50
68952;BMP180;56000;51.146;17.112;2023-10-13T09:58:22;100165.80;;;26.20
68952;BMP180;56000;51.146;17.112;2023-10-13T10:01:02;100160.60;;;25.74
68952;BMP180;56000;51.146;17.112;2023-10-13T10:03:48;100154.40;;;25.30
68952;BMP180;56000;51.146;17.112;2023-10-13T10:06:39;100151.80;;;25.00
68952;BMP180;56000;51.146;17.112;2023-10-13T10:09:18;100141.80;;;25.28
68952;BMP180;56000;51.146;17.112;2023-10-13T10:12:19;100135.80;;;26.08
68952;BMP180;56000;51.146;17.112;2023-10-13T10:15:20;100129.60;;;27.06
68952;BMP180;56000;51.146;17.112;2023-10-13T10:17:59;100129.00;;;27.50
68952;BMP180;56000;51.146;17.112;2023-10-13T10:20:36;100120.00;;;27.60
68952;BMP180;56000;51.146;17.112;2023-10-13T10:23:28;100118.40;;;27.64
68952;BMP180;56000;51.146;17.112;2023-10-13T10:26:14;100117.40;;;27.60
68952;BMP180;56000;51.146;17.112;2023-10-13T10:28:47;100104.00;;;27.56
68952;BMP180;56000;51.146;17.112;2023-10-13T10:31:20;100101.20;;;27.50
68952;BMP180;56000;51.146;17.112;2023-10-13T10:34:16;100096.40;;;27.98
68952;BMP180;56000;51.146;17.112;2023-10-13T10:36:56;100101.60;;;29.72
68952;BMP180;56000;51.146;17.112;2023-10-13T10:39:38;100097.20;;;31.10
68952;BMP180;56000;51.146;17.112;2023-10-13T10:42:17;100089.40;;;32.20
68952;BMP180;56000;51.146;17.112;2023-10-13T10:44:55;100082.40;;;33.00
68952;BMP180;56000;51.146;17.112;2023-10-13T10:47:36;100083.40;;;33.40
68952;BMP180;56000;51.146;17.112;2023-10-13T10:50:11;100085.80;;;33.84
68952;BMP180;56000;51.146;17.112;2023-10-13T10:52:51;100087.00;;;34.68
68952;BMP180;56000;51.146;17.112;2023-10-13T10:55:29;100085.00;;;35.42
68952;BMP180;56000;51.146;17.112;2023-10-13T10:58:03;100081.80;;;36.22
68952;BMP180;56000;51.146;17.112;2023-10-13T11:00:37;100092.20;;;36.34
68952;BMP180;56000;51.146;17.112;2023-10-13T11:03:18;100087.00;;;36.60
68952;BMP180;56000;51.146;17.112;2023-10-13T11:05:51;100084.60;;;36.86
68952;BMP180;56000;51.146;17.112;2023-10-13T11:08:27;100076.00;;;37.04
68952;BMP180;56000;51.146;17.112;2023-10-13T11:11:03;100068.20;;;37.18
68952;BMP180;56000;51.146;17.112;2023-10-13T11:13:44;100069.00;;;36.04
68952;BMP180;56000;51.146;17.112;2023-10-13T11:16:26;100075.20;;;35.14
68952;BMP180;56000;51.146;17.112;2023-10-13T11:19:06;100065.20;;;33.72
68952;BMP180;56000;51.146;17.112;2023-10-13T11:21:39;100066.80;;;32.88
68952;BMP180;56000;51.146;17.112;2023-10-13T11:24:13;100064.80;;;31.92
68952;BMP180;56000;51.146;17.112;2023-10-13T11:26:50;100059.00;;;32.10
68952;BMP180;56000;51.146;17.112;2023-10-13T11:29:33;100063.00;;;31.54
68952;BMP180;56000;51.146;17.112;2023-10-13T11:32:07;100050.40;;;30.72
68952;BMP180;56000;51.146;17.112;2023-10-13T11:34:40;100050.00;;;30.40
68952;BMP180;56000;51.146;17.112;2023-10-13T11:37:13;100044.60;;;30.70
68952;BMP180;56000;51.146;17.112;2023-10-13T11:40:00;100042.80;;;30.70
68952;BMP180;56000;51.146;17.112;2023-10-13T11:42:32;100033.60;;;30.50
68952;BMP180;56000;51.146;17.112;2023-10-13T11:45:08;100038.60;;;30.26
68952;BMP180;56000;51.146;17.112;2023-10-13T11:48:00;100039.80;;;29.54
68952;BMP180;56000;51.146;17.112;2023-10-13T11:50:34;100035.60;;;28.68
68952;BMP180;56000;51.146;17.112;2023-10-13T11:53:08;100037.20;;;27.78
68952;BMP180;56000;51.146;17.112;2023-10-13T11:55:44;100032.00;;;26.74
68952;BMP180;56000;51.146;17.112;2023-10-13T11:58:17;100024.80;;;25.92
68952;BMP180;56000;51.146;17.112;2023-10-13T12:00:50;100021.60;;;25.60
68952;BMP180;56000;51.146;17.112;2023-10-13T12:03:25;100023.60;;;25.70
68952;BMP180;56000;51.146;17.112;2023-10-13T12:06:16;100019.00;;;26.54
68952;BMP180;56000;51.146;17.112;2023-10-13T12:09:05;100023.60;;;27.58
68952;BMP180;56000;51.146;17.112;2023-10-13T12:11:51;100031.00;;;27.30
68952;BMP180;56000;51.146;17.112;2023-10-13T12:14:26;100016.60;;;27.04
68952;BMP180;56000;51.146;17.112;2023-10-13T12:17:01;100018.00;;;26.50
68952;BMP180;56000;51.146;17.112;2023-10-13T12:19:36;100015.00;;;26.26
68952;BMP180;56000;51.146;17.112;2023-10-13T12:22:10;100014.60;;;25.96
68952;BMP180;56000;51.146;17.112;2023-10-13T12:24:48;100011.20;;;25.70
68952;BMP180;56000;51.146;17.112;2023-10-13T12:27:25;100007.00;;;25.30
68952;BMP180;56000;51.146;17.112;2023-10-13T12:30:10;100012.80;;;24.90
68952;BMP180;56000;51.146;17.112;2023-10-13T12:32:45;99999.40;;;24.60
68952;BMP180;56000;51.146;17.112;2023-10-13T12:35:30;99997.80;;;24.48
68952;BMP180;56000;51.146;17.112;2023-10-13T12:38:07;100005.20;;;24.40
68952;BMP180;56000;51.146;17.112;2023-10-13T12:40:49;100000.20;;;24.40
68952;BMP180;56000;51.146;17.112;2023-10-13T12:43:59;99996.20;;;24.50
68952;BMP180;56000;51.146;17.112;2023-10-13T12:46:50;99996.60;;;24.30
68952;BMP180;56000;51.146;17.112;2023-10-13T12:49:40;99994.60;;;24.00
68952;BMP180;56000;51.146;17.112;2023-10-13T12:52:29;99989.60;;;23.70
68952;BMP180;56000;51.146;17.112;2023-10-13T12:55:05;99985.60;;;23.40
68952;BMP180;56000;51.146;17.112;2023-10-13T12:57:45;99987.20;;;23.20
68952;BMP180;56000;51.146;17.112;2023-10-13T13:00:18;99977.40;;;23.12
68952;BMP180;56000;51.146;17.112;2023-10-13T13:02:56;99975.40;;;23.10
68952;BMP180;56000;51.146;17.112;2023-10-13T13:05:30;99974.40;;;23.00
68952;BMP180;56000;51.146;17.112;2023-10-13T13:08:03;99971.20;;;22.92
68952;BMP180;56000;51.146;17.112;2023-10-13T13:10:37;99962.60;;;22.80
68952;BMP180;56000;51.146;17.112;2023-10-13T13:13:10;99950.40;;;22.70
68952;BMP180;56000;51.146;17.112;2023-10-13T13:15:43;99947.60;;;22.60
68952;BMP180;56000;51.146;17.112;2023-10-13T13:18:17;99946.60;;;22.50
68952;BMP180;56000;51.146;17.112;2023-10-13T13:20:51;99944.40;;;22.40
68952;BMP180;56000;51.146;17.112;2023-10-13T13:23:27;99945.00;;;22.30
68952;BMP180;56000;51.146;17.112;2023-10-13T13:26:03;99946.80;;;22.22
68952;BMP180;56000;51.146;17.112;2023-10-13T13:28:49;99948.20;;;22.10
68952;BMP180;56000;51.146;17.112;2023-10-13T13:31:23;99944.80;;;22.00
68952;BMP180;56000;51.146;17.112;2023-10-13T13:34:00;99941.40;;;21.90
68952;BMP180;56000;51.146;17.112;2023-10-13T13:36:35;99940.40;;;21.80
68952;BMP180;56000;51.146;17.112;2023-10-13T13:39:08;99942.80;;;21.80
68952;BMP180;56000;51.146;17.112;2023-10-13T13:41:41;99941.40;;;21.84
68952;BMP180;56000;51.146;17.112;2023-10-13T13:44:15;99937.40;;;21.88
68952;BMP180;56000;51.146;17.112;2023-10-13T13:46:48;99926.00;;;21.88
68952;BMP180;56000;51.146;17.112;2023-10-13T13:49:24;99926.20;;;21.90
68952;BMP180;56000;51.146;17.112;2023-10-13T13:52:11;99929.40;;;21.80
68952;BMP180;56000;51.146;17.112;2023-10-13T13:54:49;99931.80;;;21.80
68952;BMP180;56000;51.146;17.112;2023-10-13T13:57:22;99931.80;;;21.80
68952;BMP180;56000;51.146;17.112;2023-10-13T13:59:56;99928.60;;;21.90
68952;BMP180;56000;51.146;17.112;2023-10-13T14:02:29;99925.00;;;22.00
68952;BMP180;56000;51.146;17.112;2023-10-13T14:05:08;99926.20;;;22.08
68952;BMP180;56000;51.146;17.112;2023-10-13T14:07:47;99926.00;;;22.18
68952;BMP180;56000;51.146;17.112;2023-10-13T14:10:23;99917.60;;;22.30
68952;BMP180;56000;51.146;17.112;2023-10-13T14:13:04;99913.00;;;22.34
68952;BMP180;56000;51.146;17.112;2023-10-13T14:15:44;99908.60;;;22.36
68952;BMP180;56000;51.146;17.112;2023-10-13T14:18:17;99900.40;;;22.32
68952;BMP180;56000;51.146;17.112;2023-10-13T14:20:51;99899.00;;;22.30
68952;BMP180;56000;51.146;17.112;2023-10-13T14:23:23;99889.20;;;22.40
68952;BMP180;56000;51.146;17.112;2023-10-13T14:25:56;99889.20;;;22.30
68952;BMP180;56000;51.146;17.112;2023-10-13T14:28:30;99887.00;;;22.28
68952;BMP180;56000;51.146;17.112;2023-10-13T14:31:08;99888.60;;;22.20
68952;BMP180;56000;51.146;17.112;2023-10-13T14:33:44;99889.80;;;22.10
68952;BMP180;56000;51.146;17.112;2023-10-13T14:36:17;99883.20;;;22.10
68952;BMP180;56000;51.146;17.112;2023-10-13T14:38:51;99879.40;;;22.00
68952;BMP180;56000;51.146;17.112;2023-10-13T14:41:24;99876.40;;;21.86
68952;BMP180;56000;51.146;17.112;2023-10-13T14:43:57;99878.60;;;21.70
68952;BMP180;56000;51.146;17.112;2023-10-13T14:46:37;99862.40;;;21.60
68952;BMP180;56000;51.146;17.112;2023-10-13T14:49:11;99856.80;;;21.50
68952;BMP180;56000;51.146;17.112;2023-10-13T14:51:45;99851.80;;;21.50
68952;BMP180;56000;51.146;17.112;2023-10-13T14:54:18;99851.20;;;21.42
68952;BMP180;56000;51.146;17.112;2023-10-13T14:56:56;99850.60;;;21.40
68952;BMP180;56000;51.146;17.112;2023-10-13T14:59:30;99846.80;;;21.40
68952;BMP180;56000;51.146;17.112;2023-10-13T15:02:14;99847.40;;;21.38
68952;BMP180;56000;51.146;17.112;2023-10-13T15:04:49;99843.20;;;21.38
68952;BMP180;56000;51.146;17.112;2023-10-13T15:07:22;99844.20;;;21.30
68952;BMP180;56000;51.146;17.112;2023-10-13T15:09:59;99849.60;;;21.30
68952;BMP180;56000;51.146;17.112;2023-10-13T15:12:32;99841.80;;;21.30
68952;BMP180;56000;51.146;17.112;2023-10-13T15:15:07;99843.80;;;21.20
68952;BMP180;56000;51.146;17.112;2023-10-13T15:17:45;99838.20;;;21.20
68952;BMP180;56000;51.146;17.112;2023-10-13T15:20:18;99834.80;;;21.20
68952;BMP180;56000;51.146;17.112;2023-10-13T15:22:50;99840.60;;;21.16